createdAt,value
2019-05-11T00:00:49.371Z,73.54
2019-05-11T00:03:22.841Z,73.58
2019-05-11T00:05:54.235Z,73.46
2019-05-11T00:08:25.654Z,73.51
2019-05-11T00:10:56.945Z,73.82
2019-05-11T00:13:28.353Z,73.70
2019-05-11T00:15:59.695Z,73.93
2019-05-11T00:18:34.600Z,74.32
2019-05-11T00:21:05.142Z,74.73
2019-05-11T00:23:36.384Z,74.50
2019-05-11T00:26:08.816Z,74.51
2019-05-11T00:28:40.275Z,74.72
2019-05-11T00:31:11.789Z,74.66
2019-05-11T00:33:43.177Z,75.22
2019-05-11T00:36:14.620Z,75.44
2019-05-11T00:38:46.013Z,75.46
2019-05-11T00:41:17.423Z,76.19
2019-05-11T00:43:48.869Z,76.57
2019-05-11T00:46:20.273Z,76.61
2019-05-11T00:48:51.774Z,76.67
2019-05-11T00:51:23.325Z,77.06
2019-05-11T00:53:54.805Z,76.97
2019-05-11T00:56:26.280Z,77.15
2019-05-11T00:58:57.671Z,77.42
2019-05-11T01:01:29.234Z,77.56
2019-05-11T01:04:00.741Z,77.64
2019-05-11T01:06:32.319Z,77.99
2019-05-11T01:09:04.712Z,78.33
2019-05-11T01:11:37.212Z,78.53
2019-05-11T01:14:08.735Z,78.72
2019-05-11T01:16:40.287Z,78.76
2019-05-11T01:19:11.819Z,78.75
2019-05-11T01:21:44.226Z,78.79
2019-05-11T01:24:15.595Z,78.54
2019-05-11T01:26:47.496Z,78.55
2019-05-11T01:29:18.885Z,78.80
2019-05-11T01:31:50.323Z,78.87
2019-05-11T01:34:21.839Z,79.18
2019-05-11T01:36:53.318Z,79.83
2019-05-11T01:39:24.760Z,80.26
2019-05-11T01:41:56.271Z,81.42
2019-05-11T01:44:27.712Z,81.93
2019-05-11T01:46:59.205Z,82.42
2019-05-11T01:49:31.782Z,82.76
2019-05-11T01:52:03.306Z,83.09
2019-05-11T01:54:36.917Z,83.45
2019-05-11T01:57:08.399Z,83.72
2019-05-11T01:59:39.979Z,84.06
2019-05-11T02:02:11.550Z,84.49
2019-05-11T02:04:43.101Z,84.84
2019-05-11T02:07:16.903Z,84.83
2019-05-11T02:09:48.396Z,84.88
2019-05-11T02:12:20.039Z,85.06
2019-05-11T02:14:51.529Z,85.14
2019-05-11T02:17:26.079Z,85.23
2019-05-11T02:19:57.678Z,85.29
2019-05-11T02:22:29.239Z,85.11
2019-05-11T02:25:01.899Z,85.22
2019-05-11T02:27:33.402Z,85.09
2019-05-11T02:30:07.253Z,84.79
2019-05-11T02:32:38.777Z,85.05
2019-05-11T02:35:10.412Z,86.01
2019-05-11T02:37:41.930Z,85.41
2019-05-11T02:40:14.330Z,85.11
2019-05-11T02:42:45.856Z,85.54
2019-05-11T02:45:20.200Z,85.18
2019-05-11T02:47:51.728Z,85.02
2019-05-11T02:50:23.260Z,85.43
2019-05-11T02:52:54.801Z,85.10
2019-05-11T02:55:26.309Z,85.59
2019-05-11T02:57:58.837Z,85.38
2019-05-11T03:00:38.858Z,85.02
2019-05-11T03:03:10.406Z,84.16
2019-05-11T03:05:41.935Z,82.78
2019-05-11T03:08:13.457Z,82.35
2019-05-11T03:10:45.001Z,82.84
2019-05-11T03:13:16.598Z,83.82
2019-05-11T03:15:48.274Z,83.77
2019-05-11T03:18:19.759Z,82.90
2019-05-11T03:20:51.265Z,82.30
2019-05-11T03:23:22.824Z,82.27
2019-05-11T03:25:55.357Z,82.72
2019-05-11T03:28:27.873Z,82.71
2019-05-11T03:31:00.306Z,82.13
2019-05-11T03:33:31.756Z,82.53
2019-05-11T03:36:03.235Z,82.88
2019-05-11T03:38:35.736Z,82.88
2019-05-11T03:41:07.217Z,82.33
2019-05-11T03:43:40.306Z,82.25
2019-05-11T03:46:12.901Z,82.58
2019-05-11T03:48:44.433Z,80.97
2019-05-11T03:51:15.952Z,80.86
2019-05-11T03:53:48.498Z,80.98
2019-05-11T03:56:19.924Z,80.66
2019-05-11T03:58:52.446Z,80.30
2019-05-11T04:01:23.930Z,78.95
2019-05-11T04:03:55.469Z,76.94
2019-05-11T04:06:27.113Z,75.91
2019-05-11T04:08:58.673Z,74.59
2019-05-11T04:11:30.078Z,72.54
2019-05-11T04:14:01.566Z,71.71
2019-05-11T04:16:32.958Z,70.36
2019-05-11T04:19:04.380Z,69.73
2019-05-11T04:21:35.926Z,64.96
2019-05-11T04:24:07.347Z,61.78
2019-05-11T04:26:38.780Z,58.65
2019-05-11T04:29:10.212Z,55.39
2019-05-11T04:31:41.626Z,53.37
2019-05-11T04:34:15.064Z,51.89
2019-05-11T04:36:46.492Z,52.94
2019-05-11T04:39:17.940Z,53.13
2019-05-11T04:41:49.371Z,52.22
2019-05-11T04:44:20.895Z,53.16
2019-05-11T04:46:52.301Z,54.60
2019-05-11T04:49:23.706Z,54.31
2019-05-11T04:51:55.276Z,52.58
2019-05-11T04:54:26.671Z,53.24
2019-05-11T04:56:58.226Z,51.38
2019-05-11T04:59:29.719Z,51.53
2019-05-11T05:02:01.123Z,50.47
2019-05-11T05:04:32.531Z,47.05
2019-05-11T05:07:05.432Z,51.79
2019-05-11T05:09:42.509Z,53.36
2019-05-11T05:12:14.139Z,50.34
2019-05-11T05:14:43.855Z,50.60
2019-05-11T05:17:15.365Z,51.07
2019-05-11T05:19:46.955Z,52.29
2019-05-11T05:22:18.457Z,54.04
2019-05-11T05:24:50.020Z,54.60
2019-05-11T05:27:21.526Z,53.94
2019-05-11T05:29:53.004Z,54.91
2019-05-11T05:32:24.520Z,58.59
2019-05-11T05:34:55.958Z,57.99
2019-05-11T05:37:28.448Z,57.57
2019-05-11T05:39:59.971Z,59.18
2019-05-11T05:42:31.528Z,57.52
2019-05-11T05:45:05.344Z,57.11
2019-05-11T05:47:37.898Z,59.27
2019-05-11T05:50:09.558Z,58.57
2019-05-11T05:52:42.211Z,58.77
2019-05-11T05:55:13.850Z,59.93
2019-05-11T05:57:45.377Z,57.29
2019-05-11T06:00:17.670Z,52.27
2019-05-11T06:02:49.139Z,48.68
2019-05-11T06:05:20.687Z,50.43
2019-05-11T06:07:52.211Z,51.85
2019-05-11T06:10:27.382Z,51.68
2019-05-11T06:12:58.883Z,49.37
2019-05-11T06:15:30.460Z,50.18
2019-05-11T06:18:02.982Z,49.75
2019-05-11T06:20:35.594Z,48.41
2019-05-11T06:23:07.105Z,45.56
2019-05-11T06:25:39.585Z,45.73
2019-05-11T06:28:12.167Z,44.37
2019-05-11T06:30:43.739Z,45.76
2019-05-11T06:33:15.267Z,44.89
2019-05-11T06:35:49.686Z,42.26
2019-05-11T06:38:29.674Z,43.56
2019-05-11T06:41:05.814Z,44.14
2019-05-11T06:43:39.965Z,45.58
2019-05-11T06:46:13.927Z,41.81
2019-05-11T06:48:55.048Z,41.84
2019-05-11T06:51:33.454Z,44.81
2019-05-11T06:54:09.989Z,45.42
2019-05-11T06:56:45.899Z,45.23
2019-05-11T06:59:19.851Z,46.41
2019-05-11T07:01:55.964Z,44.33
2019-05-11T07:04:35.035Z,41.92
2019-05-11T07:07:07.931Z,44.06
2019-05-11T07:09:39.326Z,43.01
2019-05-11T07:12:11.055Z,39.94
2019-05-11T07:14:42.600Z,43.41
2019-05-11T07:17:14.969Z,47.79
2019-05-11T07:19:47.810Z,47.85
2019-05-11T07:22:19.161Z,46.44
2019-05-11T07:24:50.585Z,44.75
2019-05-11T07:27:22.052Z,45.24
2019-05-11T07:29:54.508Z,45.78
2019-05-11T07:32:29.205Z,42.42
2019-05-11T07:35:00.494Z,41.97
2019-05-11T07:37:32.961Z,43.23
2019-05-11T07:40:05.513Z,43.81
2019-05-11T07:42:38.285Z,43.69
2019-05-11T07:45:11.137Z,42.64
2019-05-11T07:47:43.727Z,45.90
2019-05-11T07:50:17.913Z,47.98
2019-05-11T07:52:48.582Z,45.60
2019-05-11T07:55:21.005Z,45.74
2019-05-11T07:57:52.468Z,46.59
2019-05-11T08:00:23.910Z,46.95
2019-05-11T08:02:55.310Z,46.39
2019-05-11T08:05:28.504Z,44.88
2019-05-11T08:08:00.078Z,44.51
2019-05-11T08:10:31.567Z,45.30
2019-05-11T08:13:04.096Z,45.49
2019-05-11T08:15:35.556Z,46.00
2019-05-11T08:18:08.498Z,43.48
2019-05-11T08:20:40.491Z,43.20
2019-05-11T08:23:12.898Z,43.74
2019-05-11T08:25:45.334Z,42.89
2019-05-11T08:28:18.428Z,42.53
2019-05-11T08:30:51.021Z,43.77
2019-05-11T08:33:22.546Z,44.23
2019-05-11T08:35:54.047Z,43.38
2019-05-11T08:38:25.479Z,43.10
2019-05-11T08:40:59.078Z,43.17
2019-05-11T08:43:30.097Z,42.57
2019-05-11T08:46:01.656Z,44.16
2019-05-11T08:48:33.217Z,44.11
2019-05-11T08:51:04.652Z,43.26
2019-05-11T08:53:38.550Z,44.21
2019-05-11T08:56:13.026Z,45.09
2019-05-11T08:58:42.462Z,44.78
2019-05-11T09:01:14.013Z,45.82
2019-05-11T09:03:47.672Z,46.89
2019-05-11T09:06:18.506Z,46.77
2019-05-11T09:08:49.986Z,47.16
2019-05-11T09:11:21.407Z,47.82
2019-05-11T09:13:52.961Z,48.69
2019-05-11T09:16:24.365Z,49.68
2019-05-11T09:18:57.979Z,49.23
2019-05-11T09:21:30.431Z,49.30
2019-05-11T09:24:04.035Z,50.40
2019-05-11T09:26:39.668Z,51.54
2019-05-11T09:29:12.982Z,51.57
2019-05-11T09:31:44.500Z,51.80
2019-05-11T09:34:17.559Z,52.38
2019-05-11T09:36:50.121Z,52.13
2019-05-11T09:39:21.588Z,52.39
2019-05-11T09:41:53.109Z,52.74
2019-05-11T09:44:24.626Z,52.37
2019-05-11T09:46:59.778Z,52.68
2019-05-11T09:49:43.975Z,52.59
2019-05-11T09:52:02.382Z,52.81
2019-05-11T09:54:33.809Z,52.95
2019-05-11T09:57:08.363Z,53.54
2019-05-11T09:59:39.338Z,53.51
2019-05-11T10:02:10.756Z,53.35
2019-05-11T10:04:42.262Z,53.48
2019-05-11T10:07:14.828Z,53.09
2019-05-11T10:09:48.037Z,53.52
2019-05-11T10:12:20.518Z,53.79
2019-05-11T10:14:52.155Z,52.53
2019-05-11T10:17:23.605Z,52.44
2019-05-11T10:19:55.059Z,52.61
2019-05-11T10:22:27.928Z,51.96
2019-05-11T10:24:59.516Z,52.33
2019-05-11T10:27:30.981Z,51.69
2019-05-11T10:30:02.510Z,52.24
2019-05-11T10:32:34.301Z,53.18
2019-05-11T10:35:08.034Z,53.50
2019-05-11T10:37:40.738Z,53.44
2019-05-11T10:40:12.481Z,55.26
2019-05-11T10:42:43.972Z,53.74
2019-05-11T10:45:17.833Z,54.14
2019-05-11T10:47:49.154Z,54.44
2019-05-11T10:50:21.002Z,54.00
2019-05-11T10:52:53.532Z,54.91
2019-05-11T10:55:25.105Z,55.63
2019-05-11T10:57:58.087Z,55.71
2019-05-11T11:00:30.663Z,55.27
2019-05-11T11:03:02.316Z,55.92
2019-05-11T11:05:35.400Z,55.64
2019-05-11T11:08:08.354Z,56.03
2019-05-11T11:10:41.455Z,56.83
2019-05-11T11:13:13.060Z,56.98
2019-05-11T11:15:48.501Z,56.49
2019-05-11T11:18:19.771Z,56.64
2019-05-11T11:20:52.371Z,56.52
2019-05-11T11:23:24.985Z,55.77
2019-05-11T11:25:58.400Z,56.38
2019-05-11T11:28:31.968Z,56.16
2019-05-11T11:31:04.624Z,56.22
2019-05-11T11:33:38.953Z,56.95
2019-05-11T11:36:14.590Z,57.34
2019-05-11T11:38:47.841Z,58.08
2019-05-11T11:41:19.716Z,57.95
2019-05-11T11:43:52.212Z,58.02
2019-05-11T11:46:23.716Z,57.69
2019-05-11T11:48:55.261Z,55.51
2019-05-11T11:51:28.610Z,54.90
2019-05-11T11:54:01.430Z,55.42
2019-05-11T11:56:33.051Z,54.48
2019-05-11T11:59:04.493Z,55.33
2019-05-11T12:01:38.528Z,56.20
2019-05-11T12:04:09.448Z,57.05
2019-05-11T12:06:42.073Z,57.23
2019-05-11T12:09:13.679Z,56.74
2019-05-11T12:11:48.672Z,57.63
2019-05-11T12:14:20.578Z,58.11
2019-05-11T12:17:03.972Z,57.42
2019-05-11T12:19:27.716Z,58.61
2019-05-11T12:21:58.662Z,63.04
2019-05-11T12:24:30.207Z,66.84
2019-05-11T12:27:01.766Z,67.91
2019-05-11T12:29:33.350Z,70.44
2019-05-11T12:32:08.195Z,70.89
2019-05-11T12:34:39.943Z,71.98
2019-05-11T12:37:11.485Z,71.80
2019-05-11T12:39:43.007Z,72.09
2019-05-11T12:42:14.624Z,70.95
2019-05-11T12:44:48.164Z,70.07
2019-05-11T12:47:25.021Z,69.20
2019-05-11T12:49:54.819Z,68.79
2019-05-11T12:52:27.997Z,69.28
2019-05-11T12:54:59.761Z,69.52
2019-05-11T12:57:32.267Z,69.68
2019-05-11T13:00:08.836Z,71.12
2019-05-11T13:02:40.559Z,71.83
2019-05-11T13:05:13.302Z,72.10
2019-05-11T13:07:45.065Z,71.50
2019-05-11T13:10:17.880Z,71.79
2019-05-11T13:12:49.609Z,72.50
2019-05-11T13:15:21.320Z,74.20
2019-05-11T13:17:54.012Z,76.50
2019-05-11T13:20:25.603Z,76.85
2019-05-11T13:22:58.702Z,79.27
2019-05-11T13:25:30.564Z,80.81
2019-05-11T13:28:02.336Z,81.25
2019-05-11T13:30:33.864Z,81.54
2019-05-11T13:33:08.318Z,80.75
2019-05-11T13:35:39.150Z,82.03
2019-05-11T13:38:10.702Z,82.62
2019-05-11T13:40:43.283Z,81.49
2019-05-11T13:43:14.829Z,81.90
2019-05-11T13:45:47.927Z,82.77
2019-05-11T13:48:19.681Z,81.55
2019-05-11T13:50:51.381Z,81.80
2019-05-11T13:53:23.971Z,81.32
2019-05-11T13:55:58.692Z,81.31
2019-05-11T13:58:29.938Z,81.03
2019-05-11T14:01:01.684Z,80.96
2019-05-11T14:03:33.247Z,79.77
2019-05-11T14:06:04.955Z,80.36
2019-05-11T14:08:39.274Z,80.19
2019-05-11T14:11:11.869Z,79.48
2019-05-11T14:13:44.538Z,78.82
2019-05-11T14:16:17.902Z,77.63
2019-05-11T14:18:49.367Z,77.84
2019-05-11T14:21:20.900Z,77.37
2019-05-11T14:23:53.716Z,78.02
2019-05-11T14:26:25.408Z,78.78
2019-05-11T14:28:59.636Z,78.15
2019-05-11T14:31:31.612Z,79.23
2019-05-11T14:34:03.223Z,78.64
2019-05-11T14:36:34.726Z,79.45
2019-05-11T14:39:08.461Z,78.57
2019-05-11T14:41:40.352Z,78.25
2019-05-11T14:44:11.876Z,78.33
2019-05-11T14:46:44.504Z,78.55
2019-05-11T14:49:18.201Z,78.05
2019-05-11T14:51:49.398Z,77.65
2019-05-11T14:54:21.009Z,78.09
2019-05-11T14:56:52.622Z,77.01
2019-05-11T14:59:24.196Z,77.32
2019-05-11T15:01:58.371Z,77.24
2019-05-11T15:04:30.112Z,76.20
2019-05-11T15:07:01.659Z,75.96
2019-05-11T15:09:33.169Z,75.35
2019-05-11T15:12:04.681Z,74.83
2019-05-11T15:14:37.807Z,74.92
2019-05-11T15:17:09.614Z,75.07
2019-05-11T15:19:41.208Z,74.25
2019-05-11T15:22:12.844Z,73.84
2019-05-11T15:24:44.422Z,73.93
2019-05-11T15:27:18.400Z,74.85
2019-05-11T15:29:49.172Z,74.31
2019-05-11T15:32:20.758Z,73.92
2019-05-11T15:34:53.308Z,74.05
2019-05-11T15:37:24.761Z,74.44
2019-05-11T15:39:58.929Z,75.07
2019-05-11T15:42:30.646Z,74.72
2019-05-11T15:45:02.412Z,74.65
2019-05-11T15:47:34.223Z,75.37
2019-05-11T15:50:09.598Z,74.38
2019-05-11T15:52:41.070Z,74.84
2019-05-11T15:55:12.994Z,74.29
2019-05-11T15:57:44.500Z,74.43
2019-05-11T16:00:16.643Z,73.88
2019-05-11T16:02:49.061Z,74.56
2019-05-11T16:05:20.965Z,75.54
2019-05-11T16:07:53.602Z,76.14
2019-05-11T16:10:25.067Z,76.55
2019-05-11T16:12:58.594Z,77.07
2019-05-11T16:15:30.941Z,77.62
2019-05-11T16:18:02.376Z,78.64
2019-05-11T16:20:33.884Z,78.72
2019-05-11T16:23:05.426Z,79.07
2019-05-11T16:25:38.300Z,79.49
2019-05-11T16:28:11.213Z,79.39
2019-05-11T16:30:43.798Z,79.51
2019-05-11T16:33:15.320Z,79.52
2019-05-11T16:35:48.944Z,79.95
2019-05-11T16:38:20.108Z,79.98
2019-05-11T16:40:51.739Z,79.80
2019-05-11T16:43:23.257Z,80.33
2019-05-11T16:45:54.806Z,80.83
2019-05-11T16:48:27.703Z,81.06
2019-05-11T16:50:59.622Z,81.47
2019-05-11T16:53:31.168Z,81.78
2019-05-11T16:56:02.678Z,81.74
2019-05-11T16:58:34.226Z,82.03
2019-05-11T17:01:08.405Z,82.14
2019-05-11T17:03:39.067Z,82.25
2019-05-11T17:06:10.613Z,82.72
2019-05-11T17:08:42.136Z,82.67
2019-05-11T17:11:14.735Z,83.00
2019-05-11T17:13:48.259Z,83.33
2019-05-11T17:16:19.478Z,83.70
2019-05-11T17:18:51.012Z,83.80
2019-05-11T17:21:24.626Z,83.96
2019-05-11T17:23:57.955Z,84.21
2019-05-11T17:26:29.577Z,84.53
2019-05-11T17:29:01.262Z,85.02
2019-05-11T17:31:32.791Z,85.72
2019-05-11T17:34:04.420Z,86.27
2019-05-11T17:36:35.969Z,87.12
2019-05-11T17:39:08.163Z,86.93
2019-05-11T17:41:39.700Z,86.93
2019-05-11T17:44:12.170Z,86.46
2019-05-11T17:46:43.682Z,86.65
2019-05-11T17:51:42.980Z,86.70
2019-05-11T17:54:14.492Z,86.30
2019-05-11T17:56:48.218Z,86.27
2019-05-11T17:59:19.692Z,86.15
2019-05-11T18:01:52.288Z,85.86
2019-05-11T18:04:23.815Z,85.72
2019-05-11T18:06:55.329Z,85.67
2019-05-11T18:09:26.893Z,85.91
2019-05-11T18:11:58.647Z,85.64
2019-05-11T18:14:31.123Z,85.31
2019-05-11T18:17:02.844Z,85.20
2019-05-11T18:19:34.382Z,85.15
2019-05-11T18:22:08.303Z,85.23
2019-05-11T18:24:39.999Z,84.89
2019-05-11T18:27:11.453Z,85.09
2019-05-11T18:29:42.866Z,84.99
2019-05-11T18:32:14.373Z,85.13
2019-05-11T18:34:48.390Z,85.21
2019-05-11T18:37:20.343Z,85.27
2019-05-11T18:39:52.847Z,85.53
2019-05-11T18:42:24.560Z,85.53
2019-05-11T18:44:58.051Z,86.49
2019-05-11T18:47:29.984Z,86.54
2019-05-11T18:50:01.877Z,86.22
2019-05-11T18:52:33.401Z,86.37
2019-05-11T18:55:08.179Z,86.65
2019-05-11T18:57:39.218Z,86.86
2019-05-11T19:00:12.097Z,87.20
2019-05-11T19:02:45.722Z,87.20
2019-05-11T19:05:18.157Z,87.14
2019-05-11T19:07:51.419Z,87.35
2019-05-11T19:10:22.985Z,87.21
2019-05-11T19:12:54.421Z,87.60
2019-05-11T19:15:25.922Z,87.54
2019-05-11T19:17:58.055Z,87.62
2019-05-11T19:20:44.475Z,87.66
2019-05-11T19:23:04.021Z,87.48
2019-05-11T19:25:37.574Z,87.38
2019-05-11T19:28:10.244Z,87.46
2019-05-11T19:30:41.797Z,87.34
2019-05-11T19:33:13.334Z,87.48
2019-05-11T19:35:44.779Z,87.14
2019-05-11T19:38:16.224Z,87.05
2019-05-11T19:40:48.382Z,87.01
2019-05-11T19:43:20.080Z,87.30
2019-05-11T19:45:51.504Z,87.06
2019-05-11T19:48:23.014Z,87.15
2019-05-11T19:51:06.771Z,87.63
2019-05-11T19:53:28.882Z,87.89
2019-05-11T19:56:00.376Z,87.96
2019-05-11T19:58:31.887Z,88.15
2019-05-11T20:01:03.373Z,88.14
2019-05-11T20:03:34.986Z,87.95
2019-05-11T20:06:08.804Z,87.94
2019-05-11T20:08:39.770Z,88.65
2019-05-11T20:11:11.307Z,88.55
2019-05-11T20:13:42.819Z,88.15
2019-05-11T20:16:14.328Z,88.07
2019-05-11T20:18:45.838Z,88.00
2019-05-11T20:21:22.615Z,87.61
2019-05-11T20:23:50.588Z,87.53
2019-05-11T20:26:22.123Z,87.55
2019-05-11T20:28:53.630Z,87.50
2019-05-11T20:31:27.584Z,87.58
2019-05-11T20:33:58.512Z,87.60
2019-05-11T20:36:30.039Z,86.65
2019-05-11T20:39:01.550Z,87.42
2019-05-11T20:41:34.405Z,87.35
2019-05-11T20:44:06.032Z,87.11
2019-05-11T20:46:38.354Z,87.56
2019-05-11T20:49:10.128Z,87.58
2019-05-11T20:51:41.670Z,88.59
2019-05-11T20:54:13.202Z,88.39
2019-05-11T20:56:44.723Z,88.42
2019-05-11T20:59:18.165Z,88.56
2019-05-11T21:01:49.467Z,88.44
2019-05-11T21:04:20.968Z,88.96
2019-05-11T21:06:53.535Z,89.12
2019-05-11T21:09:25.033Z,88.77
2019-05-11T21:11:58.887Z,88.99
2019-05-11T21:14:29.692Z,89.03
2019-05-11T21:17:01.219Z,89.44
2019-05-11T21:19:32.743Z,89.62
2019-05-11T21:22:04.344Z,89.62
2019-05-11T21:24:35.855Z,90.04
2019-05-11T21:27:07.353Z,90.39
2019-05-11T21:29:38.893Z,90.48
2019-05-11T21:32:10.428Z,90.71
2019-05-11T21:34:41.890Z,90.86
2019-05-11T21:37:13.386Z,91.52
2019-05-11T21:39:44.821Z,91.68
2019-05-11T21:42:18.149Z,91.99
2019-05-11T21:44:49.811Z,92.58
2019-05-11T21:47:21.339Z,93.14
2019-05-11T21:49:52.854Z,93.37
2019-05-11T21:52:24.404Z,93.36
2019-05-11T21:54:58.189Z,93.47
2019-05-11T21:57:29.170Z,93.43
2019-05-11T22:00:00.792Z,93.25
2019-05-11T22:02:32.409Z,92.75
2019-05-11T22:05:04.779Z,92.29
2019-05-11T22:07:38.738Z,91.78
2019-05-11T22:10:10.408Z,91.41
2019-05-11T22:12:42.069Z,91.45
2019-05-11T22:15:13.792Z,91.41
2019-05-11T22:17:45.290Z,91.39
2019-05-11T22:20:18.372Z,91.61
2019-05-11T22:22:50.088Z,91.66
2019-05-11T22:25:21.604Z,92.03
2019-05-11T22:27:53.047Z,92.29
2019-05-11T22:30:24.569Z,92.72
2019-05-11T22:32:58.129Z,93.09
2019-05-11T22:35:29.462Z,93.50
2019-05-11T22:38:01.923Z,93.75
2019-05-11T22:40:33.884Z,94.01
2019-05-11T22:43:06.034Z,94.22
2019-05-11T22:45:38.370Z,94.40
2019-05-11T22:48:11.039Z,94.31
2019-05-11T22:50:43.776Z,94.71
2019-05-11T22:53:15.462Z,94.76
2019-05-11T22:55:48.534Z,94.88
2019-05-11T22:58:20.072Z,94.94
2019-05-11T23:00:52.556Z,94.99
2019-05-11T23:03:23.986Z,94.39
2019-05-11T23:05:58.166Z,94.90
2019-05-11T23:08:29.825Z,95.47
2019-05-11T23:11:01.544Z,95.30
2019-05-11T23:13:33.069Z,95.20
2019-05-11T23:16:04.694Z,95.31
2019-05-11T23:18:38.847Z,95.27
2019-05-11T23:21:09.419Z,95.14
2019-05-11T23:23:40.959Z,94.95
2019-05-11T23:26:12.352Z,95.02
2019-05-11T23:28:43.850Z,95.16
2019-05-11T23:31:15.362Z,95.23
2019-05-11T23:33:46.860Z,95.33
2019-05-11T23:36:18.372Z,95.48
2019-05-11T23:38:49.818Z,95.67
2019-05-11T23:41:24.511Z,95.33
2019-05-11T23:43:54.574Z,95.51
2019-05-11T23:46:28.210Z,95.45
2019-05-11T23:48:59.267Z,95.32
2019-05-11T23:51:30.758Z,95.42
2019-05-11T23:54:02.312Z,95.44
2019-05-11T23:56:33.847Z,95.63
2019-05-11T23:59:05.356Z,95.77
